Terminal Aerodrome Forecast
Issued by NWS Binghamton, NY

Home | Current Version | Previous Version | Text Only | Print | Product List | Glossary On
Versions: 1 2 3 4 5 6 7 8 9 10 11 12 13 14 15 16 17 18 19 20 21
405
FTUS41 KBGM 250531
TAFBGM
TAF
KBGM 250531Z 2506/2606 21005KT P6SM -SHRA BKN040 BKN080
      WS020/25040KT
      TEMPO 2509/2513 2SM -RA BR BKN008
     FM251300 VRB05KT 2SM -RA BR OVC008
     FM260000 09005KT 5SM BR OVC008=

USA.gov is the U.S. government's official web portal to all federal, state and local government web resources and services.